Time;durP1;ratioP1;P1;durP2;ratioP2;P2;SDS_P1;SDS_P2;PMS_P1;PMS_P2;Temp;Humidity;BMP_temperature;BMP_pressure;BME280_temperature;BME280_humidity;BME280_pressure;Samples;Min_cycle;Max_cycle;Signal;HPM_P1;HPM_P2
2021/03/25 00:00:02;;;;;;;12.00;9.70;;;;;;;4.56;86.96;100796.10;626575;227;23698;-77
2021/03/25 00:02:30;;;;;;;11.73;8.30;;;;;;;4.37;88.75;100802.36;628474;225;24829;-77
2021/03/25 00:04:57;;;;;;;10.70;7.87;;;;;;;4.38;88.49;100804.02;639754;224;24801;-77
2021/03/25 00:07:25;;;;;;;12.60;8.70;;;;;;;4.44;88.78;100806.21;639663;224;26932;-77
2021/03/25 00:09:53;;;;;;;12.10;8.53;;;;;;;4.46;87.96;100800.97;640094;224;24808;-77
2021/03/25 00:12:22;;;;;;;11.47;7.97;;;;;;;4.49;88.33;100791.77;631435;226;24859;-78
2021/03/25 00:14:50;;;;;;;12.47;8.30;;;;;;;4.51;88.87;100791.23;637461;225;24828;-77
2021/03/25 00:17:18;;;;;;;11.80;9.00;;;;;;;4.48;89.19;100792.22;636974;223;24770;-77
2021/03/25 00:19:46;;;;;;;15.37;9.90;;;;;;;4.65;89.10;100793.81;628095;228;24873;-77
2021/03/25 00:22:14;;;;;;;13.60;9.17;;;;;;;4.52;90.02;100799.33;627457;225;24835;-77
2021/03/25 00:24:42;;;;;;;17.90;10.27;;;;;;;4.51;90.65;100796.39;619041;229;24900;-78
2021/03/25 00:27:10;;;;;;;13.63;9.97;;;;;;;4.33;90.96;100791.02;639846;224;25066;-77
2021/03/25 00:29:38;;;;;;;17.10;9.17;;;;;;;4.50;89.73;100789.55;641266;224;24977;-78
2021/03/25 00:32:07;;;;;;;12.90;8.70;;;;;;;4.41;89.12;100783.69;637527;223;26982;-77
2021/03/25 00:34:36;;;;;;;13.37;9.10;;;;;;;4.37;89.52;100783.51;626082;229;24815;-77
2021/03/25 00:37:04;;;;;;;14.70;9.70;;;;;;;4.46;89.29;100776.50;630926;227;24908;-77
2021/03/25 00:39:32;;;;;;;18.45;11.00;;;;;;;4.94;87.02;100768.83;621894;229;33159;-77
2021/03/25 00:42:00;;;;;;;16.57;10.82;;;;;;;5.18;85.39;100761.28;632101;221;32775;-78
2021/03/25 00:44:28;;;;;;;18.10;10.80;;;;;;;4.73;87.29;100766.27;637986;224;23667;-77
2021/03/25 00:46:56;;;;;;;15.93;10.40;;;;;;;4.57;88.70;100766.39;639993;224;24856;-77
2021/03/25 00:49:24;;;;;;;16.70;11.00;;;;;;;5.00;86.50;100763.74;628620;224;32748;-78
2021/03/25 00:51:51;;;;;;;15.70;10.40;;;;;;;4.16;88.33;100759.84;630317;224;23738;-78
2021/03/25 00:54:19;;;;;;;15.60;10.78;;;;;;;4.57;87.36;100759.13;634722;224;32842;-77
2021/03/25 00:56:47;;;;;;;18.00;10.60;;;;;;;4.02;88.69;100758.09;629398;227;25861;-77
2021/03/25 00:59:15;;;;;;;18.13;10.07;;;;;;;3.96;89.67;100759.74;626157;229;24804;-77
2021/03/25 01:01:44;;;;;;;14.30;9.80;;;;;;;3.94;89.67;100757.72;624895;226;24818;-77
2021/03/25 01:04:11;;;;;;;13.70;10.33;;;;;;;3.81;91.21;100764.49;624957;229;24911;-77
2021/03/25 01:06:39;;;;;;;14.17;9.30;;;;;;;3.81;90.72;100768.35;628089;226;24860;-77
2021/03/25 01:09:11;;;;;;;17.53;10.87;;;;;;;3.84;91.62;100769.45;626327;225;24853;-78
2021/03/25 01:11:39;;;;;;;13.70;9.50;;;;;;;3.82;90.31;100760.55;624404;226;24801;-78
2021/03/25 01:14:07;;;;;;;15.23;9.60;;;;;;;3.88;90.21;100760.63;637262;225;24787;-78
2021/03/25 01:16:35;;;;;;;13.53;8.60;;;;;;;3.82;90.24;100757.14;626646;229;26057;-77
2021/03/25 01:19:03;;;;;;;11.45;8.70;;;;;;;4.40;87.26;100748.55;631590;225;32619;-78
2021/03/25 01:21:31;;;;;;;11.30;8.73;;;;;;;3.94;88.35;100747.43;637583;224;25799;-77
2021/03/25 01:23:59;;;;;;;13.83;8.77;;;;;;;3.80;88.30;100752.52;627753;226;24859;-77
2021/03/25 01:26:27;;;;;;;12.50;9.27;;;;;;;3.74;88.92;100750.31;627740;228;24906;-78
2021/03/25 01:28:55;;;;;;;15.10;8.10;;;;;;;3.74;88.86;100749.03;638228;224;27946;-77
2021/03/25 01:31:24;;;;;;;13.20;8.77;;;;;;;3.65;88.52;100742.66;634193;221;24783;-77
2021/03/25 01:33:51;;;;;;;11.57;7.83;;;;;;;3.57;88.57;100746.97;640149;224;27985;-78
2021/03/25 01:36:19;;;;;;;12.13;8.20;;;;;;;3.54;89.31;100745.03;639277;224;24809;-77
2021/03/25 01:38:47;;;;;;;14.13;8.90;;;;;;;3.44;89.15;100738.29;639266;224;24824;-77
2021/03/25 01:41:15;;;;;;;14.30;9.20;;;;;;;3.26;90.66;100747.04;639088;221;24869;-77
2021/03/25 01:43:43;;;;;;;15.83;9.50;;;;;;;3.16;92.62;100745.88;627476;227;27968;-77
2021/03/25 01:46:16;;;;;;;14.63;9.30;;;;;;;3.23;92.19;100743.33;628446;228;24890;-77
2021/03/25 01:48:44;;;;;;;13.13;8.93;;;;;;;3.21;92.30;100738.28;640250;222;24769;-77
2021/03/25 01:51:13;;;;;;;12.20;8.43;;;;;;;3.54;90.40;100739.44;628073;225;24888;-77
2021/03/25 01:53:46;;;;;;;14.37;9.33;;;;;;;3.44;91.25;100726.72;627156;228;24852;-77
2021/03/25 01:56:20;;;;;;;10.77;8.23;;;;;;;3.44;91.45;100728.01;641453;223;24809;-77
2021/03/25 01:59:00;;;;;;;14.20;8.47;;;;;;;3.30;91.72;100726.67;630144;225;27979;-77
2021/03/25 02:01:28;;;;;;;13.10;8.60;;;;;;;3.37;92.55;100732.28;635064;225;24989;-76
2021/03/25 02:04:13;;;;;;;11.60;8.50;;;;;;;3.41;92.25;100720.93;628381;228;24866;-77
2021/03/25 02:06:41;;;;;;;14.63;8.80;;;;;;;3.42;91.92;100716.98;636525;224;24809;-77
2021/03/25 02:09:11;;;;;;;12.63;7.83;;;;;;;3.36;91.84;100712.63;624377;230;24858;-77
2021/03/25 02:11:41;;;;;;;13.80;8.63;;;;;;;3.22;91.49;100706.52;635376;225;24905;-77
2021/03/25 02:14:11;;;;;;;12.60;8.10;;;;;;;3.10;90.81;100696.12;638361;224;24809;-77
2021/03/25 02:16:39;;;;;;;12.70;9.20;;;;;;;3.75;89.41;100691.06;624996;225;32829;-77
2021/03/25 02:19:10;;;;;;;13.70;10.18;;;;;;;4.04;85.63;100671.78;626364;225;43689;-78
2021/03/25 02:21:47;;;;;;;13.87;8.77;;;;;;;3.31;87.52;100679.48;626545;225;23801;-77
2021/03/25 02:24:32;;;;;;;14.23;9.27;;;;;;;3.06;88.97;100692.05;628370;225;24816;-77
2021/03/25 02:27:03;;;;;;;15.13;9.47;;;;;;;2.81;90.69;100698.53;626449;229;25112;-78
2021/03/25 02:29:38;;;;;;;15.50;11.23;;;;;;;2.73;92.05;100705.84;628877;227;24837;-78
2021/03/25 02:32:07;;;;;;;14.97;9.63;;;;;;;2.73;95.24;100716.11;624488;227;27971;-77
2021/03/25 02:34:35;;;;;;;13.80;9.77;;;;;;;2.77;95.54;100712.46;625858;229;24819;-76
2021/03/25 02:37:04;;;;;;;14.40;10.07;;;;;;;2.90;95.02;100716.02;625637;229;27994;-77
2021/03/25 02:39:34;;;;;;;13.70;9.67;;;;;;;3.06;95.03;100710.86;626973;228;24861;-77
2021/03/25 02:42:02;;;;;;;15.65;10.90;;;;;;;3.68;93.29;100708.23;619543;226;32792;-77
2021/03/25 02:44:29;;;;;;;14.40;9.60;;;;;;;3.24;94.40;100715.46;639666;223;23686;-77
2021/03/25 02:46:58;;;;;;;12.87;9.33;;;;;;;3.21;93.30;100710.47;639979;224;24850;-79
2021/03/25 02:49:26;;;;;;;15.65;10.50;;;;;;;3.94;91.87;100707.55;633032;224;32739;-77
2021/03/25 02:51:54;;;;;;;15.37;10.00;;;;;;;3.38;92.06;100712.94;638489;221;23641;-78
2021/03/25 02:54:22;;;;;;;17.60;9.03;;;;;;;3.18;92.33;100714.05;638079;222;24759;-77
2021/03/25 02:56:50;;;;;;;12.73;9.40;;;;;;;3.14;93.04;100713.03;638707;224;24785;-77
2021/03/25 02:59:18;;;;;;;15.53;9.73;;;;;;;3.03;94.54;100712.78;626936;229;24823;-77
2021/03/25 03:01:46;;;;;;;12.07;8.43;;;;;;;3.09;93.08;100711.15;628564;225;24837;-78
2021/03/25 03:04:16;;;;;;;12.00;8.60;;;;;;;3.06;93.32;100708.75;641446;223;24845;-77
2021/03/25 03:06:42;;;;;;;15.00;9.77;;;;;;;3.16;93.59;100709.91;625786;229;24804;-77
2021/03/25 03:09:10;;;;;;;11.33;8.93;;;;;;;3.28;93.60;100709.22;627330;228;24829;-77
2021/03/25 03:11:37;;;;;;;15.33;9.90;;;;;;;3.49;92.46;100705.42;625477;226;24803;-76
2021/03/25 03:14:05;;;;;;;14.47;9.23;;;;;;;3.36;92.90;100708.78;627464;228;24862;-77
2021/03/25 03:16:34;;;;;;;15.00;11.15;;;;;;;3.92;90.60;100696.95;632536;225;32966;-77
2021/03/25 03:19:02;;;;;;;15.73;10.77;;;;;;;3.48;91.26;100697.34;627181;225;23682;-77
2021/03/25 03:21:31;;;;;;;20.67;11.60;;;;;;;3.43;92.63;100698.08;624721;226;24792;-77
2021/03/25 03:23:59;;;;;;;18.83;10.40;;;;;;;3.54;92.71;100698.29;624133;229;24807;-77
2021/03/25 03:26:27;;;;;;;17.70;10.80;;;;;;;3.43;91.14;100696.78;624509;228;24805;-77
2021/03/25 03:28:55;;;;;;;16.53;10.70;;;;;;;3.37;90.94;100684.27;639303;224;24806;-77
2021/03/25 03:31:23;;;;;;;17.43;10.20;;;;;;;3.32;91.46;100688.02;638889;223;24813;-77
2021/03/25 03:33:51;;;;;;;14.37;9.53;;;;;;;3.34;92.29;100688.77;637956;225;24770;-77
2021/03/25 03:36:19;;;;;;;12.90;9.70;;;;;;;3.18;93.09;100692.66;638857;223;26996;-77
2021/03/25 03:38:49;;;;;;;17.17;10.00;;;;;;;3.08;92.94;100691.50;639820;224;28047;-78
2021/03/25 03:41:16;;;;;;;14.00;9.13;;;;;;;3.16;92.70;100693.20;635590;225;24749;-77
2021/03/25 03:43:44;;;;;;;14.47;9.60;;;;;;;2.83;92.29;100682.61;626556;228;24843;-77
2021/03/25 03:46:12;;;;;;;15.47;9.63;;;;;;;2.68;92.22;100689.41;642105;224;24802;-76
2021/03/25 03:48:40;;;;;;;16.57;9.07;;;;;;;2.60;92.81;100695.41;640066;224;24794;-77
2021/03/25 03:51:08;;;;;;;13.33;8.53;;;;;;;2.57;92.50;100693.47;631902;225;24822;-78
2021/03/25 03:53:37;;;;;;;14.93;9.30;;;;;;;2.45;92.43;100686.41;626864;225;24807;-77
2021/03/25 03:56:07;;;;;;;13.10;9.20;;;;;;;2.42;92.65;100685.30;631418;225;24813;-77
2021/03/25 03:58:38;;;;;;;12.70;7.43;;;;;;;2.45;92.62;100687.70;626963;225;27972;-77
2021/03/25 04:01:07;;;;;;;10.90;8.00;;;;;;;2.32;92.39;100688.80;631608;225;24815;-77
2021/03/25 04:03:36;;;;;;;10.73;8.03;;;;;;;2.31;92.81;100694.38;636849;225;24759;-77
2021/03/25 04:06:04;;;;;;;13.63;8.53;;;;;;;2.41;92.91;100693.91;636845;224;24773;-77
2021/03/25 04:08:33;;;;;;;11.07;8.07;;;;;;;2.45;92.40;100691.55;629223;228;24892;-77
2021/03/25 04:11:01;;;;;;;11.90;8.50;;;;;;;2.44;92.55;100689.89;629365;226;27026;-77
2021/03/25 04:13:29;;;;;;;13.83;8.60;;;;;;;2.41;92.70;100696.48;622138;229;25059;-77
2021/03/25 04:15:57;;;;;;;10.87;8.00;;;;;;;2.36;92.40;100703.94;638334;224;25028;-77
2021/03/25 04:18:26;;;;;;;12.23;9.20;;;;;;;2.84;90.99;100684.72;627932;224;32553;-77
2021/03/25 04:20:53;;;;;;;14.00;8.97;;;;;;;2.45;91.56;100685.13;638215;224;23652;-76
2021/03/25 04:23:21;;;;;;;13.93;8.57;;;;;;;2.31;92.26;100684.58;638674;224;24804;-76
2021/03/25 04:25:50;;;;;;;13.53;9.23;;;;;;;3.01;90.33;100677.36;621462;229;32826;-76
2021/03/25 04:28:18;;;;;;;13.00;8.83;;;;;;;2.44;92.17;100684.76;628157;228;23794;-77
2021/03/25 04:30:46;;;;;;;14.00;8.77;;;;;;;2.27;92.87;100690.33;623224;228;25017;-77
2021/03/25 04:33:14;;;;;;;14.47;9.13;;;;;;;2.32;92.95;100694.76;627442;226;24802;-76
2021/03/25 04:35:42;;;;;;;11.30;7.63;;;;;;;2.27;92.69;100695.47;638028;225;24778;-77
2021/03/25 04:38:12;;;;;;;14.03;8.37;;;;;;;2.36;92.98;100692.84;627144;227;24832;-77
2021/03/25 04:40:40;;;;;;;11.33;8.30;;;;;;;2.51;92.65;100693.77;640120;224;24804;-76
2021/03/25 04:43:09;;;;;;;14.73;9.30;;;;;;;2.57;91.49;100687.05;639725;221;24813;-77
2021/03/25 04:45:37;;;;;;;15.15;10.00;;;;;;;2.71;91.46;100683.28;634329;224;32798;-76
2021/03/25 04:48:05;;;;;;;23.10;15.83;;;;;;;2.48;93.68;100693.95;639643;224;23696;-77
2021/03/25 04:50:34;;;;;;;21.20;15.63;;;;;;;3.14;91.06;100690.72;634209;224;32750;-77
2021/03/25 04:53:03;;;;;;;16.27;11.23;;;;;;;2.72;91.97;100688.78;638012;221;23715;-76
2021/03/25 04:55:33;;;;;;;16.45;11.48;;;;;;;3.29;90.74;100682.61;633533;224;33204;-77
2021/03/25 04:58:02;;;;;;;13.47;9.67;;;;;;;2.97;92.28;100680.56;636561;225;23666;-76
2021/03/25 05:00:30;;;;;;;12.73;9.80;;;;;;;2.80;92.35;100681.47;638515;225;24839;-76
2021/03/25 05:02:58;;;;;;;13.07;8.93;;;;;;;2.82;93.15;100684.81;627537;225;24857;-76
2021/03/25 05:05:26;;;;;;;13.27;9.07;;;;;;;2.81;93.71;100682.30;619830;229;24870;-76
2021/03/25 05:07:56;;;;;;;14.40;9.50;;;;;;;2.99;93.72;100689.02;636856;225;24772;-77
2021/03/25 05:10:24;;;;;;;13.67;8.93;;;;;;;3.15;93.35;100691.55;638182;223;24765;-76
2021/03/25 05:12:54;;;;;;;18.87;10.10;;;;;;;3.15;94.59;100694.13;638837;225;24765;-77
2021/03/25 05:15:21;;;;;;;14.43;9.90;;;;;;;3.27;95.23;100701.14;639678;224;25130;-76
2021/03/25 05:17:51;;;;;;;16.27;9.47;;;;;;;3.23;94.68;100700.47;637649;224;24792;-77
2021/03/25 05:20:19;;;;;;;19.33;10.70;;;;;;;3.26;94.41;100696.92;628103;227;24862;-76
2021/03/25 05:22:49;;;;;;;11.30;8.30;;;;;;;3.23;93.60;100691.47;627879;224;24810;-77
2021/03/25 05:25:17;;;;;;;16.27;9.20;;;;;;;3.15;92.40;100685.13;627659;229;24818;-76
2021/03/25 05:27:45;;;;;;;15.13;8.00;;;;;;;2.93;92.13;100683.73;632477;225;24852;-77
2021/03/25 05:30:14;;;;;;;11.50;8.17;;;;;;;3.00;91.91;100680.39;638863;224;24851;-77
2021/03/25 05:32:42;;;;;;;11.70;8.30;;;;;;;2.94;91.52;100678.14;639522;220;24815;-77
2021/03/25 05:35:13;;;;;;;16.23;10.90;;;;;;;3.35;90.29;100680.95;635655;223;32939;-77
2021/03/25 05:37:42;;;;;;;15.30;9.83;;;;;;;2.89;92.34;100694.27;638389;225;23629;-77
2021/03/25 05:40:13;;;;;;;14.10;9.80;;;;;;;2.83;92.15;100695.91;638800;223;24743;-77
2021/03/25 05:42:43;;;;;;;13.43;9.10;;;;;;;2.92;93.64;100697.95;625426;226;24789;-77
2021/03/25 05:45:21;;;;;;;15.70;9.90;;;;;;;3.09;94.76;100708.58;638087;225;24764;-77
2021/03/25 05:47:55;;;;;;;14.30;10.37;;;;;;;3.37;95.16;100707.86;639537;223;24807;-77
2021/03/25 05:50:24;;;;;;;15.17;10.00;;;;;;;3.56;94.79;100707.20;638915;224;24830;-76
2021/03/25 05:52:54;;;;;;;19.07;11.60;;;;;;;4.12;92.46;100698.73;633155;221;32813;-77
2021/03/25 05:55:42;;;;;;;16.10;9.70;;;;;;;3.87;93.08;100701.92;638530;224;23685;-77
2021/03/25 05:58:12;;;;;;;19.50;10.00;;;;;;;3.77;93.52;100708.97;637881;225;24824;-77
2021/03/25 06:00:42;;;;;;;13.80;9.00;;;;;;;3.93;92.64;100705.04;625664;229;26938;-77
2021/03/25 06:03:10;;;;;;;16.40;9.47;;;;;;;3.83;93.07;100704.31;627183;225;24858;-77
2021/03/25 06:05:38;;;;;;;15.10;10.75;;;;;;;4.48;90.93;100705.95;627245;225;32928;-77
2021/03/25 06:08:19;;;;;;;20.50;10.77;;;;;;;4.21;90.59;100702.48;626941;229;23705;-77
2021/03/25 06:10:53;;;;;;;17.40;11.80;;;;;;;4.73;89.85;100693.67;635294;223;33018;-77
2021/03/25 06:13:26;;;;;;;16.03;10.60;;;;;;;4.42;91.01;100703.77;640046;221;24810;-77
2021/03/25 06:16:01;;;;;;;11.87;9.40;;;;;;;4.46;91.67;100711.66;625478;229;24857;-77
2021/03/25 06:18:55;;;;;;;18.93;9.97;;;;;;;4.48;92.50;100714.14;633911;224;24823;-77
2021/03/25 06:21:25;;;;;;;16.57;10.20;;;;;;;4.55;92.46;100716.72;616902;230;24867;-77
2021/03/25 06:24:00;;;;;;;13.23;9.50;;;;;;;4.70;93.13;100724.78;637563;225;24784;-77
2021/03/25 06:26:30;;;;;;;20.80;10.23;;;;;;;4.99;91.81;100720.39;637933;225;24770;-77
2021/03/25 06:29:02;;;;;;;14.50;9.70;;;;;;;5.15;91.76;100718.13;639891;223;26932;-77
2021/03/25 06:31:34;;;;;;;14.07;10.10;;;;;;;5.26;91.32;100721.67;640131;220;32346;-77
2021/03/25 06:34:04;;;;;;;17.37;10.77;;;;;;;5.38;91.47;100724.39;626446;229;24807;-77
2021/03/25 06:36:40;;;;;;;15.40;9.73;;;;;;;5.52;91.26;100726.91;641573;223;26026;-77
2021/03/25 06:39:12;;;;;;;16.12;11.93;;;;;;;5.85;89.15;100718.22;636068;223;32787;-77
2021/03/25 06:41:40;;;;;;;16.77;11.00;;;;;;;5.62;90.59;100725.36;623543;225;25059;-76
2021/03/25 06:44:09;;;;;;;14.43;10.10;;;;;;;5.68;90.23;100724.97;639838;223;24866;-78
2021/03/25 06:46:37;;;;;;;15.43;10.85;;;;;;;6.02;89.26;100713.70;633063;223;43311;-76
2021/03/25 06:49:06;;;;;;;14.50;9.43;;;;;;;6.20;89.08;100718.94;625975;229;26861;-77
2021/03/25 06:51:34;;;;;;;18.03;10.80;;;;;;;6.28;88.64;100720.98;636763;222;24767;-77
2021/03/25 06:54:07;;;;;;;12.60;9.20;;;;;;;6.33;87.94;100721.01;624684;229;24930;-76
2021/03/25 06:56:35;;;;;;;12.63;8.67;;;;;;;6.49;87.32;100724.22;628890;228;26988;-77
2021/03/25 06:59:03;;;;;;;17.47;9.90;;;;;;;6.68;86.61;100721.63;623134;229;24799;-77
2021/03/25 07:01:34;;;;;;;13.00;8.83;;;;;;;7.03;86.09;100717.36;628391;225;24895;-77
2021/03/25 07:04:02;;;;;;;10.30;7.80;;;;;;;7.29;85.43;100726.30;630254;223;24907;-77
2021/03/25 07:06:31;;;;;;;11.73;8.33;;;;;;;7.00;84.54;100718.05;639922;224;24786;-77
2021/03/25 07:08:59;;;;;;;11.30;9.10;;;;;;;7.30;84.49;100722.30;624040;229;30128;-78
2021/03/25 07:11:27;;;;;;;10.00;8.27;;;;;;;7.03;83.76;100712.19;621390;225;24798;-77
2021/03/25 07:13:58;;;;;;;12.70;7.73;;;;;;;7.22;83.94;100724.64;638708;225;24806;-77
2021/03/25 07:16:23;;;;;;;13.05;9.00;;;;;;;7.71;82.03;100721.02;631093;223;32602;-77
2021/03/25 07:18:53;;;;;;;13.70;8.63;;;;;;;7.53;82.29;100719.81;625933;228;23708;-77
2021/03/25 07:21:26;;;;;;;14.63;8.10;;;;;;;7.58;81.37;100721.11;641441;221;24941;-76
2021/03/25 07:23:55;;;;;;;12.30;7.97;;;;;;;7.57;81.50;100722.52;625837;229;24804;-76
2021/03/25 07:26:24;;;;;;;9.37;7.47;;;;;;;7.84;80.70;100714.47;638594;224;24751;-77
2021/03/25 07:28:59;;;;;;;13.67;7.90;;;;;;;8.11;80.97;100716.27;625338;229;25122;-77
2021/03/25 07:31:30;;;;;;;11.93;8.80;;;;;;;8.09;79.81;100715.56;638554;223;24780;-76
2021/03/25 07:33:59;;;;;;;11.53;7.53;;;;;;;8.64;79.95;100717.81;627355;228;24949;-77
2021/03/25 07:36:28;;;;;;;10.40;7.37;;;;;;;8.81;79.39;100712.59;621713;229;25029;-76
2021/03/25 07:39:01;;;;;;;9.87;7.33;;;;;;;8.67;78.85;100713.68;627559;228;24845;-78
2021/03/25 07:41:30;;;;;;;11.13;7.73;;;;;;;9.07;78.79;100710.52;622819;227;24811;-76
2021/03/25 07:43:58;;;;;;;10.27;6.90;;;;;;;8.99;77.36;100715.48;638199;224;24795;-77
2021/03/25 07:46:30;;;;;;;11.22;7.97;;;;;;;9.29;76.03;100713.48;617290;228;32723;-77
2021/03/25 07:49:01;;;;;;;10.13;7.30;;;;;;;9.04;76.53;100708.18;640505;223;23682;-76
2021/03/25 07:51:29;;;;;;;12.43;7.03;;;;;;;9.23;75.89;100706.56;634416;220;24776;-78
2021/03/25 07:54:09;;;;;;;10.43;6.83;;;;;;;9.35;75.51;100708.64;626343;229;24796;-77
2021/03/25 07:56:36;;;;;;;9.80;6.23;;;;;;;9.57;74.65;100710.77;637055;224;28095;-77
2021/03/25 07:59:04;;;;;;;10.83;7.73;;;;;;;9.97;75.27;100707.80;629448;228;24855;-77
2021/03/25 08:01:32;;;;;;;9.83;6.53;;;;;;;10.28;73.35;100710.45;625891;226;28241;-77
2021/03/25 08:04:00;;;;;;;8.57;5.87;;;;;;;10.24;73.03;100700.77;637127;225;23838;-74
2021/03/25 08:06:28;;;;;;;10.33;7.17;;;;;;;10.20;71.80;100690.27;630961;225;35472;-77
2021/03/25 08:09:00;;;;;;;9.87;5.83;;;;;;;10.35;72.11;100686.39;626800;228;24840;-77
2021/03/25 08:11:28;;;;;;;14.10;6.90;;;;;;;10.59;71.71;100687.34;627315;225;25089;-76
2021/03/25 08:13:57;;;;;;;12.10;6.37;;;;;;;10.88;70.82;100695.69;637284;225;24793;-77
2021/03/25 08:16:26;;;;;;;10.55;6.80;;;;;;;10.86;69.43;100686.72;619110;229;33042;-78
2021/03/25 08:18:59;;;;;;;11.13;6.47;;;;;;;10.84;71.05;100686.03;639857;225;23760;-77
2021/03/25 08:21:33;;;;;;;9.10;6.03;;;;;;;10.52;70.12;100686.22;636940;221;24792;-77
2021/03/25 08:24:23;;;;;;;8.17;6.07;;;;;;;10.94;69.67;100693.34;637529;225;24753;-77
2021/03/25 08:26:55;;;;;;;8.67;6.23;;;;;;;10.76;68.86;100689.77;637879;225;24775;-77
2021/03/25 08:29:24;;;;;;;10.10;6.40;;;;;;;11.07;68.34;100685.28;625742;228;27015;-77
2021/03/25 08:31:57;;;;;;;11.53;6.47;;;;;;;11.26;69.22;100691.81;625833;225;27007;-77
2021/03/25 08:34:48;;;;;;;9.23;5.90;;;;;;;11.71;67.64;100687.29;639143;225;23820;-76
2021/03/25 08:37:26;;;;;;;11.37;6.20;;;;;;;11.93;66.84;100684.02;636881;224;25853;-77
2021/03/25 08:39:54;;;;;;;8.40;6.10;;;;;;;11.86;65.56;100674.18;638279;224;24848;-77
2021/03/25 08:42:25;;;;;;;8.93;5.70;;;;;;;12.28;66.03;100677.66;637560;221;24812;-77
2021/03/25 08:44:55;;;;;;;13.00;6.40;;;;;;;12.04;65.40;100666.91;624341;229;24887;-76
2021/03/25 08:47:23;;;;;;;8.80;5.83;;;;;;;12.41;64.28;100674.22;637772;225;23821;-74
2021/03/25 08:49:56;;;;;;;9.53;5.90;;;;;;;11.54;65.51;100657.58;638628;223;24753;-77
2021/03/25 08:52:24;;;;;;;10.97;7.17;;;;;;;12.34;65.33;100670.54;626745;226;27026;-77
2021/03/25 08:54:56;;;;;;;25.43;7.87;;;;;;;11.78;65.36;100671.89;635907;224;24821;-77
2021/03/25 08:57:21;;;;;;;10.30;7.10;;;;;;;11.85;66.21;100676.92;630385;224;23835;-76
2021/03/25 08:59:52;;;;;;;12.10;7.60;;;;;;;12.00;65.87;100682.02;639669;224;24770;-77
2021/03/25 09:02:22;;;;;;;11.43;7.50;;;;;;;11.95;65.72;100678.18;629111;226;24861;-77
2021/03/25 09:04:51;;;;;;;11.93;6.97;;;;;;;12.08;65.77;100682.11;626517;229;24819;-77
2021/03/25 09:07:19;;;;;;;12.70;7.53;;;;;;;12.37;66.21;100684.59;637689;223;24756;-76
2021/03/25 09:09:47;;;;;;;10.50;6.37;;;;;;;12.82;65.42;100682.50;638008;223;24754;-76
2021/03/25 09:12:16;;;;;;;9.93;6.50;;;;;;;13.27;63.69;100677.22;637403;223;24769;-76
2021/03/25 09:14:44;;;;;;;12.40;7.70;;;;;;;13.65;62.82;100672.57;621142;228;32749;-76
2021/03/25 09:17:14;;;;;;;14.30;7.53;;;;;;;13.64;62.99;100667.83;626520;229;22716;-76
2021/03/25 09:19:41;;;;;;;13.73;7.80;;;;;;;13.65;60.75;100656.89;625955;228;24836;-75
2021/03/25 09:22:09;;;;;;;10.70;6.90;;;;;;;13.70;62.34;100665.59;627222;225;23867;-77
2021/03/25 09:24:40;;;;;;;11.23;7.03;;;;;;;14.42;61.36;100665.60;624878;228;24842;-74
2021/03/25 09:27:08;;;;;;;14.40;8.60;;;;;;;14.26;59.79;100666.37;637221;225;23825;-74
2021/03/25 09:30:09;;;;;;;13.03;8.00;;;;;;;13.24;62.11;100664.47;638541;225;24009;-77
2021/03/25 09:32:38;;;;;;;15.95;8.95;;;;;;;13.22;63.13;100665.08;619936;226;32747;-76
2021/03/25 09:35:30;;;;;;;15.40;8.57;;;;;;;13.46;62.90;100661.02;634369;225;23707;-76
2021/03/25 09:37:59;;;;;;;15.20;8.90;;;;;;;13.53;62.47;100664.19;632369;225;23858;-76
2021/03/25 09:40:36;;;;;;;17.40;8.10;;;;;;;13.92;62.29;100663.75;634528;225;24827;-77
2021/03/25 09:43:12;;;;;;;17.70;9.03;;;;;;;14.20;60.96;100659.95;639794;222;23830;-75
2021/03/25 09:45:40;;;;;;;14.80;8.57;;;;;;;13.76;61.51;100654.51;639394;225;24797;-76
2021/03/25 09:48:17;;;;;;;15.03;8.43;;;;;;;14.28;61.27;100655.25;627208;229;26994;-77
2021/03/25 09:50:57;;;;;;;15.80;8.93;;;;;;;13.78;61.43;100665.14;637609;225;24814;-76
2021/03/25 09:53:25;;;;;;;18.33;9.27;;;;;;;14.52;61.69;100660.61;637568;225;24803;-76
2021/03/25 09:56:01;;;;;;;14.53;8.10;;;;;;;14.58;60.02;100657.00;634465;226;24818;-75
2021/03/25 09:58:38;;;;;;;16.30;9.07;;;;;;;15.08;60.97;100652.50;622062;229;24803;-75
2021/03/25 10:01:07;;;;;;;16.07;10.60;;;;;;;14.71;60.52;100652.12;637564;225;23809;-75
2021/03/25 10:04:00;;;;;;;20.80;10.43;;;;;;;14.46;60.65;100650.75;641124;223;23827;-74
2021/03/25 10:06:41;;;;;;;19.17;11.88;;;;;;;14.16;61.25;100654.71;634873;223;32799;-74
2021/03/25 10:09:09;;;;;;;15.97;9.73;;;;;;;14.16;61.74;100661.25;640951;223;22689;-76
2021/03/25 10:11:45;;;;;;;18.50;10.20;;;;;;;14.03;61.20;100658.25;628148;225;23819;-76
2021/03/25 10:14:24;;;;;;;18.63;10.77;;;;;;;14.24;61.49;100667.02;625918;227;23884;-76
2021/03/25 10:16:52;;;;;;;18.30;10.60;;;;;;;14.79;61.44;100655.59;640266;224;23818;-74
2021/03/25 10:19:24;;;;;;;16.60;10.07;;;;;;;15.13;59.46;100654.13;641545;223;24807;-74
2021/03/25 10:21:55;;;;;;;17.30;9.97;;;;;;;14.81;61.95;100651.00;637163;224;24764;-74
2021/03/25 10:24:23;;;;;;;18.63;11.17;;;;;;;15.18;59.86;100644.95;625762;228;23906;-74
2021/03/25 10:26:51;;;;;;;20.70;11.03;;;;;;;14.90;60.51;100647.88;637601;225;23813;-74
2021/03/25 10:29:19;;;;;;;16.47;10.50;;;;;;;15.52;59.11;100635.59;637783;223;24809;-74
2021/03/25 10:31:47;;;;;;;23.47;12.33;;;;;;;15.28;59.61;100634.63;640678;221;24855;-74
2021/03/25 10:34:19;;;;;;;21.47;12.13;;;;;;;15.03;59.82;100644.79;640285;224;23799;-75
2021/03/25 10:36:48;;;;;;;21.27;11.97;;;;;;;15.07;60.67;100640.88;640187;223;23824;-74
2021/03/25 10:39:20;;;;;;;19.57;11.00;;;;;;;14.73;59.92;100641.00;640021;224;23864;-74
2021/03/25 10:41:47;;;;;;;21.73;12.00;;;;;;;15.55;60.19;100638.70;625003;226;26989;-76
2021/03/25 10:44:22;;;;;;;19.53;11.30;;;;;;;15.18;60.26;100636.59;625657;229;23839;-76
2021/03/25 10:46:50;;;;;;;20.80;11.40;;;;;;;15.95;60.31;100642.23;623324;229;24813;-74
2021/03/25 10:49:18;;;;;;;22.00;11.33;;;;;;;16.25;57.96;100637.52;625957;229;23841;-74
2021/03/25 10:51:46;;;;;;;20.70;11.23;;;;;;;16.51;58.09;100624.58;637020;221;23805;-76
2021/03/25 10:54:21;;;;;;;23.33;12.23;;;;;;;16.21;56.56;100620.97;638979;225;24814;-74
2021/03/25 10:56:49;;;;;;;22.27;12.70;;;;;;;16.27;58.32;100622.90;624303;229;23796;-74
2021/03/25 10:59:19;;;;;;;24.33;13.13;;;;;;;16.67;57.26;100616.63;625661;229;25931;-75
2021/03/25 11:01:48;;;;;;;24.33;13.23;;;;;;;16.14;57.18;100606.39;625851;225;24785;-74
2021/03/25 11:04:16;;;;;;;22.53;12.73;;;;;;;16.75;56.68;100611.79;637333;224;24870;-77
2021/03/25 11:06:44;;;;;;;22.67;14.25;;;;;;;17.31;56.99;100601.80;617532;229;32765;-76
2021/03/25 11:09:12;;;;;;;21.23;12.53;;;;;;;17.20;56.75;100607.83;626607;229;24869;-77
2021/03/25 11:11:40;;;;;;;25.00;12.13;;;;;;;16.47;57.19;100605.73;639078;221;23810;-75
2021/03/25 11:14:11;;;;;;;18.47;11.80;;;;;;;16.84;56.85;100601.55;637977;224;24793;-75
2021/03/25 11:16:39;;;;;;;23.50;11.90;;;;;;;17.28;55.50;100608.73;639176;223;23810;-75
2021/03/25 11:19:07;;;;;;;21.23;12.87;;;;;;;16.74;56.11;100602.28;638726;223;24877;-76
2021/03/25 11:21:35;;;;;;;21.20;12.97;;;;;;;16.23;57.19;100609.80;639742;221;23818;-76
2021/03/25 11:24:06;;;;;;;21.40;12.30;;;;;;;16.21;57.68;100618.34;641072;223;23805;-77
2021/03/25 11:26:35;;;;;;;24.87;14.20;;;;;;;16.32;57.15;100619.25;641254;224;28000;-76
2021/03/25 11:29:05;;;;;;;20.80;12.40;;;;;;;16.47;58.08;100614.08;637113;224;23777;-74
2021/03/25 11:31:33;;;;;;;23.90;11.97;;;;;;;16.97;57.12;100614.10;621159;225;24839;-74
2021/03/25 11:34:01;;;;;;;25.00;16.33;;;;;;;16.73;57.99;100610.66;640738;223;24799;-76